createdAt,value
2022-12-09T00:00:22.227Z,76752.13
2022-12-09T00:02:48.841Z,76748.28
2022-12-09T00:05:15.606Z,76750.19
2022-12-09T00:07:42.510Z,76754.06
2022-12-09T00:10:09.463Z,76750.19
2022-12-09T00:12:36.353Z,76752.13
2022-12-09T00:15:03.106Z,76757.91
2022-12-09T00:17:30.512Z,76752.13
2022-12-09T00:19:57.084Z,76752.13
2022-12-09T00:22:26.076Z,76754.06
2022-12-09T00:24:52.576Z,76748.28
2022-12-09T00:27:19.176Z,76754.06
2022-12-09T00:29:45.961Z,76755.97
2022-12-09T00:32:13.381Z,76752.13
2022-12-09T00:34:40.368Z,76748.28
2022-12-09T00:37:08.170Z,76750.19
2022-12-09T00:39:34.712Z,76742.50
2022-12-09T00:42:01.463Z,76732.84
2022-12-09T00:44:28.345Z,76729.00
2022-12-09T00:46:55.398Z,76721.28
2022-12-09T00:49:22.247Z,76730.94
2022-12-09T00:51:48.965Z,76729.00
2022-12-09T00:54:15.714Z,76730.94
2022-12-09T00:56:43.251Z,76727.06
2022-12-09T00:59:09.972Z,76725.16
2022-12-09T01:01:36.828Z,76732.84
2022-12-09T01:04:05.385Z,76740.56
2022-12-09T01:06:32.064Z,76740.56
2022-12-09T01:08:59.399Z,76738.63
2022-12-09T01:11:27.121Z,76736.72
2022-12-09T01:13:54.180Z,76738.63
2022-12-09T01:16:22.419Z,76746.34
2022-12-09T01:18:49.940Z,76742.50
2022-12-09T01:21:17.251Z,76744.41
2022-12-09T01:23:44.464Z,76736.72
2022-12-09T01:26:11.331Z,76736.72
2022-12-09T01:28:38.870Z,76740.56
2022-12-09T01:31:06.626Z,76740.56
2022-12-09T01:33:33.708Z,76740.56
2022-12-09T01:36:00.335Z,76732.84
2022-12-09T01:38:27.148Z,76736.72
2022-12-09T01:40:53.744Z,76736.72
2022-12-09T01:43:20.783Z,76742.50
2022-12-09T01:45:47.853Z,76736.72
2022-12-09T01:48:17.265Z,76730.94
2022-12-09T01:50:47.425Z,76717.44
2022-12-09T01:53:15.242Z,76717.44
2022-12-09T01:55:42.229Z,76725.16
2022-12-09T01:58:09.262Z,76729.00
2022-12-09T02:00:35.928Z,76736.72
2022-12-09T02:03:05.749Z,76729.00
2022-12-09T02:05:34.342Z,76730.94
2022-12-09T02:08:01.006Z,76721.28
2022-12-09T02:10:28.733Z,76725.16
2022-12-09T02:13:21.917Z,76721.28
2022-12-09T02:15:53.655Z,76717.44
2022-12-09T02:18:20.257Z,76721.28
2022-12-09T02:20:53.514Z,76725.16
2022-12-09T02:23:25.032Z,76719.38
2022-12-09T02:25:52.189Z,76723.22
2022-12-09T02:28:37.841Z,76721.28
2022-12-09T02:31:08.010Z,76725.16
2022-12-09T02:33:52.736Z,76729.00
2022-12-09T02:36:23.985Z,76732.84
2022-12-09T02:38:52.797Z,76729.00
2022-12-09T02:41:23.876Z,76740.56
2022-12-09T02:43:53.810Z,76727.06
2022-12-09T02:46:27.702Z,76734.78
2022-12-09T02:48:57.912Z,76736.72
2022-12-09T02:51:26.735Z,76740.56
2022-12-09T02:53:57.313Z,76750.19
2022-12-09T02:56:24.870Z,76752.13
2022-12-09T02:58:51.619Z,76744.41
2022-12-09T03:01:26.767Z,76748.28
2022-12-09T03:03:54.910Z,76746.34
2022-12-09T03:06:27.731Z,76746.34
2022-12-09T03:09:16.794Z,76736.72
2022-12-09T03:11:43.934Z,76730.94
2022-12-09T03:14:17.073Z,76732.84
2022-12-09T03:16:44.050Z,76721.28
2022-12-09T03:19:10.709Z,76725.16
2022-12-09T03:21:39.487Z,76729.00
2022-12-09T03:24:07.934Z,76729.00
2022-12-09T03:26:35.528Z,76725.16
2022-12-09T03:29:04.255Z,76729.00
2022-12-09T03:31:32.513Z,76723.22
2022-12-09T03:34:02.199Z,76721.28
2022-12-09T03:36:29.982Z,76717.44
2022-12-09T03:38:57.452Z,76721.28
2022-12-09T03:41:24.216Z,76717.44
2022-12-09T03:43:54.217Z,76709.72
2022-12-09T03:46:22.149Z,76709.72
2022-12-09T03:48:49.328Z,76709.72
2022-12-09T03:51:20.958Z,76711.66
2022-12-09T03:53:55.313Z,76703.94
2022-12-09T03:56:27.692Z,76700.09
2022-12-09T03:58:55.500Z,76702.03
2022-12-09T04:01:24.047Z,76703.94
2022-12-09T04:03:53.168Z,76698.16
2022-12-09T04:06:20.221Z,76698.16
2022-12-09T04:08:47.255Z,76690.47
2022-12-09T04:11:14.340Z,76698.16
2022-12-09T04:13:41.224Z,76702.03
2022-12-09T04:16:07.965Z,76694.31
2022-12-09T04:18:34.674Z,76698.16
2022-12-09T04:21:05.358Z,76698.16
2022-12-09T04:23:31.853Z,76694.31
2022-12-09T04:25:58.616Z,76694.31
2022-12-09T04:28:25.377Z,76702.03
2022-12-09T04:30:52.179Z,76690.47
2022-12-09T04:33:18.807Z,76690.47
2022-12-09T04:35:45.565Z,76686.59
2022-12-09T04:38:12.076Z,76678.91
2022-12-09T04:40:40.362Z,76684.69
2022-12-09T04:43:07.016Z,76688.53
2022-12-09T04:45:34.592Z,76680.81
2022-12-09T04:48:01.371Z,76678.91
2022-12-09T04:50:28.082Z,76676.97
2022-12-09T04:52:54.662Z,76673.13
2022-12-09T04:55:21.217Z,76682.75
2022-12-09T04:57:48.063Z,76682.75
2022-12-09T05:00:15.314Z,76686.59
2022-12-09T05:02:42.309Z,76678.91
2022-12-09T05:05:09.732Z,76678.91
2022-12-09T05:07:36.721Z,76684.69
2022-12-09T05:10:04.143Z,76676.97
2022-12-09T05:12:32.836Z,76671.19
2022-12-09T05:14:59.664Z,76665.41
2022-12-09T05:17:26.880Z,76663.47
2022-12-09T05:19:53.706Z,76659.63
2022-12-09T05:22:20.641Z,76651.91
2022-12-09T05:24:47.531Z,76651.91
2022-12-09T05:27:14.907Z,76640.34
2022-12-09T05:29:41.863Z,76640.34
2022-12-09T05:32:08.579Z,76628.78
2022-12-09T05:34:35.275Z,76623.00
2022-12-09T05:37:02.417Z,76611.44
2022-12-09T05:39:29.249Z,76605.66
2022-12-09T05:41:55.950Z,76605.66
2022-12-09T05:44:22.688Z,76605.66
2022-12-09T05:46:49.403Z,76601.81
2022-12-09T05:49:16.892Z,76596.03
2022-12-09T05:51:43.760Z,76586.41
2022-12-09T05:54:10.449Z,76588.31
2022-12-09T05:56:38.083Z,76594.09
2022-12-09T05:59:07.239Z,76597.97
2022-12-09T06:01:34.149Z,76601.81
2022-12-09T06:04:00.935Z,76607.59
2022-12-09T06:06:30.369Z,76609.53
2022-12-09T06:08:59.678Z,76613.38
2022-12-09T06:11:27.043Z,76613.38
2022-12-09T06:13:54.149Z,76599.88
2022-12-09T06:16:22.412Z,76601.81
2022-12-09T06:18:52.620Z,76601.81
2022-12-09T06:21:19.990Z,76599.88
2022-12-09T06:23:47.160Z,76601.81
2022-12-09T06:26:17.301Z,76605.66
2022-12-09T06:28:44.559Z,76609.53
2022-12-09T06:31:11.631Z,76619.16
2022-12-09T06:33:54.161Z,76621.09
2022-12-09T06:36:22.017Z,76617.22
2022-12-09T06:38:48.935Z,76609.53
2022-12-09T06:41:16.247Z,76611.44
2022-12-09T06:43:43.325Z,76613.38
2022-12-09T06:46:14.623Z,76613.38
2022-12-09T06:48:41.795Z,76605.66
2022-12-09T06:51:08.912Z,76611.44
2022-12-09T06:53:36.081Z,76613.38
2022-12-09T06:56:09.696Z,76601.81
2022-12-09T06:58:38.701Z,76596.03
2022-12-09T07:01:07.861Z,76594.09
2022-12-09T07:03:34.951Z,76590.25
2022-12-09T07:06:03.601Z,76576.75
2022-12-09T07:08:30.821Z,76569.06
2022-12-09T07:10:58.060Z,76570.97
2022-12-09T07:13:25.366Z,76567.13
2022-12-09T07:15:52.261Z,76567.13
2022-12-09T07:18:19.206Z,76563.28
2022-12-09T07:20:46.474Z,76569.06
2022-12-09T07:23:13.848Z,76569.06
2022-12-09T07:25:40.723Z,76555.56
2022-12-09T07:28:07.437Z,76551.72
2022-12-09T07:30:36.797Z,76544.00
2022-12-09T07:33:03.951Z,76532.44
2022-12-09T07:35:30.819Z,76532.44
2022-12-09T07:37:57.916Z,76528.59
2022-12-09T07:40:24.630Z,76532.44
2022-12-09T07:42:56.145Z,76518.97
2022-12-09T07:45:25.757Z,76518.97
2022-12-09T07:47:53.040Z,76511.25
2022-12-09T07:50:19.828Z,76505.47
2022-12-09T07:52:46.868Z,76497.75
2022-12-09T07:55:14.367Z,76493.91
2022-12-09T07:57:41.791Z,76486.19
2022-12-09T08:00:08.747Z,76478.50
2022-12-09T08:02:38.540Z,76478.50
2022-12-09T08:05:05.639Z,76474.63
2022-12-09T08:07:35.583Z,76470.78
2022-12-09T08:10:06.122Z,76470.78
2022-12-09T08:12:41.305Z,76468.84
2022-12-09T08:15:08.663Z,76455.38
2022-12-09T08:17:35.973Z,76443.81
2022-12-09T08:20:03.214Z,76439.94
2022-12-09T08:22:29.926Z,76434.16
2022-12-09T08:24:57.256Z,76422.59
2022-12-09T08:27:24.133Z,76414.91
2022-12-09T08:29:50.864Z,76411.03
2022-12-09T08:32:18.609Z,76409.13
2022-12-09T08:34:46.613Z,76405.25
2022-12-09T08:37:13.320Z,76409.13
2022-12-09T08:39:39.955Z,76407.19
2022-12-09T08:42:06.743Z,76405.25
2022-12-09T08:44:33.619Z,76412.97
2022-12-09T08:47:00.377Z,76412.97
2022-12-09T08:49:28.236Z,76407.19
2022-12-09T08:51:55.513Z,76409.13
2022-12-09T08:54:22.523Z,76401.41
2022-12-09T08:56:50.780Z,76397.56
2022-12-09T08:59:17.880Z,76395.63
2022-12-09T09:01:44.762Z,76391.78
2022-12-09T09:04:13.411Z,76389.84
2022-12-09T09:06:41.718Z,76382.13
2022-12-09T09:09:10.699Z,76380.22
2022-12-09T09:11:38.350Z,76370.56
2022-12-09T09:14:06.751Z,76368.66
2022-12-09T09:16:34.060Z,76357.09
2022-12-09T09:19:03.720Z,76355.16
2022-12-09T09:21:30.575Z,76364.81
2022-12-09T09:23:57.543Z,76359.00
2022-12-09T09:26:26.160Z,76355.16
2022-12-09T09:28:53.812Z,76359.00
2022-12-09T09:31:21.355Z,76351.31
2022-12-09T09:33:48.941Z,76349.38
2022-12-09T09:36:21.017Z,76339.75
2022-12-09T09:38:52.450Z,76335.91
2022-12-09T09:41:24.103Z,76328.19
2022-12-09T09:43:51.274Z,76320.47
2022-12-09T09:46:22.850Z,76303.13
2022-12-09T09:48:52.003Z,76301.22
2022-12-09T09:51:19.952Z,76293.50
2022-12-09T09:53:49.887Z,76293.50
2022-12-09T09:56:35.250Z,76287.72
2022-12-09T09:59:20.654Z,76278.09
2022-12-09T10:01:55.185Z,76268.44
2022-12-09T10:04:41.444Z,76266.53
2022-12-09T10:07:09.480Z,76253.03
2022-12-09T10:09:42.567Z,76243.41
2022-12-09T10:12:24.957Z,76239.56
2022-12-09T10:14:59.129Z,76229.91
2022-12-09T10:17:32.185Z,76228.00
2022-12-09T10:20:05.962Z,76224.13
2022-12-09T10:22:41.591Z,76214.50
2022-12-09T10:25:34.937Z,76212.56
2022-12-09T10:28:11.073Z,76212.56
2022-12-09T10:30:44.085Z,76208.72
2022-12-09T10:33:12.720Z,76195.22
2022-12-09T10:35:39.786Z,76191.38
2022-12-09T10:38:10.545Z,76195.22
2022-12-09T10:40:47.333Z,76185.59
2022-12-09T10:43:37.516Z,76177.91
2022-12-09T10:46:21.062Z,76174.03
2022-12-09T10:48:49.495Z,76166.34
2022-12-09T10:51:31.175Z,76170.19
2022-12-09T10:54:00.160Z,76172.13
2022-12-09T10:56:29.911Z,76168.25
2022-12-09T10:59:15.219Z,76160.56
2022-12-09T11:01:48.123Z,76160.56
2022-12-09T11:04:17.460Z,76150.91
2022-12-09T11:06:44.946Z,76150.91
2022-12-09T11:09:19.470Z,76141.28
2022-12-09T11:11:47.963Z,76135.50
2022-12-09T11:14:25.765Z,76141.28
2022-12-09T11:16:58.139Z,76141.28
2022-12-09T11:19:32.519Z,76141.28
2022-12-09T11:22:17.826Z,76147.06
2022-12-09T11:24:44.960Z,76139.34
2022-12-09T11:27:23.689Z,76143.22
2022-12-09T11:30:09.508Z,76147.06
2022-12-09T11:32:54.569Z,76149.00
2022-12-09T11:35:25.938Z,76139.34
2022-12-09T11:37:52.604Z,76141.28
2022-12-09T11:40:19.688Z,76147.06
2022-12-09T11:42:51.718Z,76141.28
2022-12-09T11:45:18.348Z,76145.13
2022-12-09T11:48:24.220Z,76139.34
2022-12-09T11:50:42.137Z,76137.44
2022-12-09T11:53:29.104Z,76129.72
2022-12-09T11:55:59.205Z,76133.56
2022-12-09T11:58:28.918Z,76123.94
2022-12-09T12:00:58.557Z,76123.94
2022-12-09T12:03:34.407Z,76116.25
2022-12-09T12:06:02.697Z,76108.53
2022-12-09T12:08:35.843Z,76112.38
2022-12-09T12:11:25.587Z,76112.38
2022-12-09T12:14:04.744Z,76114.31
2022-12-09T12:16:39.759Z,76114.31
2022-12-09T12:19:13.901Z,76116.25
2022-12-09T12:21:59.369Z,76110.47
2022-12-09T12:24:41.332Z,76110.47
2022-12-09T12:27:23.324Z,76100.81
2022-12-09T12:30:02.030Z,76100.81
2022-12-09T12:32:34.589Z,76093.13
2022-12-09T12:35:16.261Z,76093.13
2022-12-09T12:37:42.770Z,76096.97
2022-12-09T12:40:28.005Z,76091.19
2022-12-09T12:43:28.310Z,76089.25
2022-12-09T12:46:17.298Z,76089.25
2022-12-09T12:49:02.534Z,76085.41
2022-12-09T12:51:29.142Z,76085.41
2022-12-09T12:54:15.213Z,76098.91
2022-12-09T12:56:44.729Z,76089.25
2022-12-09T12:59:14.333Z,76087.34
2022-12-09T13:01:54.442Z,76083.47
2022-12-09T13:04:39.488Z,76077.69
2022-12-09T13:07:27.792Z,76070.00
2022-12-09T13:10:07.694Z,76062.28
2022-12-09T13:12:55.268Z,76058.44
2022-12-09T13:15:42.222Z,76052.66
2022-12-09T13:18:14.970Z,76043.03
2022-12-09T13:20:57.983Z,76043.03
2022-12-09T13:23:43.362Z,76035.31
2022-12-09T13:26:20.136Z,76039.16
2022-12-09T13:29:09.582Z,76025.69
2022-12-09T13:31:37.901Z,76029.53
2022-12-09T13:34:18.549Z,76029.53
2022-12-09T13:36:46.541Z,76021.81
2022-12-09T13:39:33.096Z,76016.03
2022-12-09T13:42:18.354Z,76016.03
2022-12-09T13:44:46.443Z,76010.25
2022-12-09T13:47:16.236Z,76012.19
2022-12-09T13:49:45.139Z,76004.47
2022-12-09T13:52:31.603Z,76004.47
2022-12-09T13:54:58.272Z,76000.63
2022-12-09T13:57:35.567Z,75996.78
2022-12-09T14:00:04.151Z,75992.94
2022-12-09T14:02:37.221Z,75992.94
2022-12-09T14:05:10.810Z,75996.78
2022-12-09T14:07:47.940Z,75989.06
2022-12-09T14:10:43.953Z,75989.06
2022-12-09T14:13:29.381Z,75989.06
2022-12-09T14:16:14.758Z,75994.84
2022-12-09T14:18:42.110Z,75991.00
2022-12-09T14:21:20.817Z,75985.22
2022-12-09T14:24:06.299Z,75989.06
2022-12-09T14:26:41.781Z,75989.06
2022-12-09T14:29:08.492Z,75985.22
2022-12-09T14:31:44.951Z,75985.22
2022-12-09T14:34:24.170Z,75977.50
2022-12-09T14:36:54.766Z,75975.59
2022-12-09T14:39:27.278Z,75975.59
2022-12-09T14:41:56.912Z,75973.66
2022-12-09T14:44:30.921Z,75973.66
2022-12-09T14:47:18.756Z,75973.66
2022-12-09T14:49:49.182Z,75971.72
2022-12-09T14:52:24.983Z,75973.66
2022-12-09T14:54:52.687Z,75977.50
2022-12-09T14:57:24.685Z,75971.72
2022-12-09T14:59:52.843Z,75971.72
2022-12-09T15:02:21.264Z,75969.81
2022-12-09T15:04:49.060Z,75973.66
2022-12-09T15:07:17.185Z,75973.66
2022-12-09T15:10:04.188Z,75973.66
2022-12-09T15:12:45.242Z,75969.81
2022-12-09T15:15:17.879Z,75965.94
2022-12-09T15:17:46.526Z,75969.81
2022-12-09T15:20:29.438Z,75964.03
2022-12-09T15:23:00.730Z,75965.94
2022-12-09T15:25:27.549Z,75965.94
2022-12-09T15:27:57.072Z,75965.94
2022-12-09T15:30:24.892Z,75958.25
2022-12-09T15:32:51.421Z,75969.81
2022-12-09T15:35:19.967Z,75965.94
2022-12-09T15:37:47.008Z,75965.94
2022-12-09T15:40:16.876Z,75958.25
2022-12-09T15:42:44.532Z,75956.31
2022-12-09T15:45:16.663Z,75954.38
2022-12-09T15:47:52.474Z,75954.38
2022-12-09T15:50:21.541Z,75948.63
2022-12-09T15:52:48.083Z,75950.53
2022-12-09T15:55:16.870Z,75946.69
2022-12-09T15:57:43.961Z,75950.53
2022-12-09T16:00:13.117Z,75956.31
2022-12-09T16:02:49.778Z,75946.69
2022-12-09T16:05:41.598Z,75946.69
2022-12-09T16:08:12.627Z,75952.47
2022-12-09T16:10:51.689Z,75946.69
2022-12-09T16:13:31.865Z,75944.75
2022-12-09T16:16:00.095Z,75944.75
2022-12-09T16:18:28.545Z,75940.91
2022-12-09T16:21:01.051Z,75938.97
2022-12-09T16:23:57.140Z,75931.28
2022-12-09T16:26:37.913Z,75942.84
2022-12-09T16:29:24.391Z,75940.91
2022-12-09T16:42:52.634Z,75912.00
2022-12-09T16:45:28.671Z,75908.16
2022-12-09T16:47:59.932Z,75908.16
2022-12-09T16:50:31.909Z,75898.53
2022-12-09T16:52:59.549Z,75886.97
2022-12-09T16:55:53.453Z,75888.88
2022-12-09T16:58:29.991Z,75888.88
2022-12-09T17:00:58.387Z,75892.75
2022-12-09T17:03:39.733Z,75898.53
2022-12-09T17:06:08.721Z,75900.44
2022-12-09T17:08:36.619Z,75894.66
2022-12-09T17:11:03.148Z,75890.81
2022-12-09T17:13:29.667Z,75885.03
2022-12-09T17:16:02.111Z,75894.66
2022-12-09T17:18:36.238Z,75888.88
2022-12-09T17:21:15.946Z,75885.03
2022-12-09T17:23:42.737Z,75877.31
2022-12-09T17:26:10.878Z,75879.25
2022-12-09T17:28:37.720Z,75881.19
2022-12-09T17:31:08.392Z,75865.75
2022-12-09T17:33:34.993Z,75871.53
2022-12-09T17:36:01.496Z,75869.63
2022-12-09T17:38:29.479Z,75863.84
2022-12-09T17:40:56.602Z,75859.97
2022-12-09T17:43:29.038Z,75861.91
2022-12-09T17:45:58.032Z,75863.84
2022-12-09T17:48:24.652Z,75865.75
2022-12-09T17:50:51.182Z,75861.91
2022-12-09T17:53:17.694Z,75861.91
2022-12-09T17:55:44.202Z,75861.91
2022-12-09T17:58:10.823Z,75861.91
2022-12-09T18:00:41.289Z,75858.06
2022-12-09T18:03:13.871Z,75861.91
2022-12-09T18:05:44.313Z,75858.06
2022-12-09T18:08:11.124Z,75865.75
2022-12-09T18:10:37.767Z,75865.75
2022-12-09T18:13:04.327Z,75873.47
2022-12-09T18:15:30.979Z,75873.47
2022-12-09T18:17:57.577Z,75869.63
2022-12-09T18:20:24.119Z,75875.41
2022-12-09T18:22:51.078Z,75873.47
2022-12-09T18:25:17.713Z,75873.47
2022-12-09T18:27:44.230Z,75865.75
2022-12-09T18:30:11.203Z,75865.75
2022-12-09T18:32:37.790Z,75865.75
2022-12-09T18:35:04.543Z,75869.63
2022-12-09T18:37:31.021Z,75869.63
2022-12-09T18:40:03.335Z,75861.91
2022-12-09T18:42:29.917Z,75865.75
2022-12-09T18:44:56.414Z,75859.97
2022-12-09T18:47:23.333Z,75858.06
2022-12-09T18:49:49.971Z,75869.63
2022-12-09T18:52:16.479Z,75879.25
2022-12-09T18:54:42.992Z,75875.41
2022-12-09T18:57:09.477Z,75885.03
2022-12-09T18:59:35.997Z,75877.31
2022-12-09T19:02:05.243Z,75881.19
2022-12-09T19:04:32.523Z,75881.19
2022-12-09T19:07:00.101Z,75888.88
2022-12-09T19:09:33.418Z,75892.75
2022-12-09T19:12:16.605Z,75900.44
2022-12-09T19:14:46.825Z,75898.53
2022-12-09T19:17:13.384Z,75898.53
2022-12-09T19:19:39.980Z,75898.53
2022-12-09T19:22:08.262Z,75896.59
2022-12-09T19:24:38.450Z,75896.59
2022-12-09T19:27:13.959Z,75900.44
2022-12-09T19:29:40.646Z,75900.44
2022-12-09T19:32:23.570Z,75900.44
2022-12-09T19:34:53.641Z,75912.00
2022-12-09T19:37:23.009Z,75902.38
2022-12-09T19:39:52.796Z,75902.38
2022-12-09T19:42:19.583Z,75904.28
2022-12-09T19:45:01.555Z,75910.06
2022-12-09T19:47:28.639Z,75915.84
2022-12-09T19:50:09.479Z,75917.78
2022-12-09T19:52:38.962Z,75919.72
2022-12-09T19:55:05.744Z,75931.28
2022-12-09T19:57:35.030Z,75940.91
2022-12-09T20:00:04.627Z,75942.84
2022-12-09T20:02:31.654Z,75935.13
2022-12-09T20:04:58.285Z,75938.97
2022-12-09T20:07:24.906Z,75946.69
2022-12-09T20:09:51.393Z,75942.84
2022-12-09T20:12:40.345Z,75948.63
2022-12-09T20:15:07.176Z,75946.69
2022-12-09T20:17:33.878Z,75940.91
2022-12-09T20:20:00.388Z,75927.41
2022-12-09T20:22:27.476Z,75923.56
2022-12-09T20:25:03.179Z,75929.34
2022-12-09T20:27:32.511Z,75921.63
2022-12-09T20:30:02.136Z,75923.56
2022-12-09T20:32:32.265Z,75938.97
2022-12-09T20:35:11.651Z,75946.69
2022-12-09T20:37:40.771Z,75942.84
2022-12-09T20:40:15.418Z,75950.53
2022-12-09T20:42:49.367Z,75962.09
2022-12-09T20:45:18.393Z,75965.94
2022-12-09T20:47:44.931Z,75971.72
2022-12-09T20:50:14.170Z,75981.38
2022-12-09T20:52:40.674Z,75969.81
2022-12-09T20:55:10.127Z,75971.72
2022-12-09T20:57:36.860Z,75960.16
2022-12-09T21:00:09.256Z,75965.94
2022-12-09T21:02:40.681Z,75967.88
2022-12-09T21:05:08.431Z,75971.72
2022-12-09T21:07:35.299Z,75977.50
2022-12-09T21:10:02.034Z,75983.28
2022-12-09T21:12:28.686Z,75981.38
2022-12-09T21:15:00.800Z,75989.06
2022-12-09T21:17:27.444Z,75996.78
2022-12-09T21:19:53.934Z,75985.22
2022-12-09T21:22:20.457Z,75994.84
2022-12-09T21:24:47.784Z,76002.56
2022-12-09T21:27:14.340Z,75989.06
2022-12-09T21:29:40.901Z,75989.06
2022-12-09T21:32:07.501Z,75991.00
2022-12-09T21:34:34.207Z,75987.16
2022-12-09T21:37:01.347Z,75991.00
2022-12-09T21:39:28.256Z,75996.78
2022-12-09T21:41:55.295Z,76008.34
2022-12-09T21:44:22.471Z,76023.75
2022-12-09T21:46:49.201Z,76037.25
2022-12-09T21:49:15.679Z,76050.72
2022-12-09T21:51:42.548Z,76058.44
2022-12-09T21:54:09.104Z,76062.28
2022-12-09T21:56:36.879Z,76070.00
2022-12-09T21:59:04.802Z,76068.06
2022-12-09T22:01:36.302Z,76087.34
2022-12-09T22:04:04.582Z,76089.25
2022-12-09T22:06:31.612Z,76093.13
2022-12-09T22:08:59.350Z,76100.81
2022-12-09T22:11:26.967Z,76108.53
2022-12-09T22:13:55.375Z,76110.47
2022-12-09T22:16:23.136Z,76120.09
2022-12-09T22:18:50.368Z,76122.00
2022-12-09T22:21:27.074Z,76127.78
2022-12-09T22:23:54.926Z,76131.66
2022-12-09T22:26:21.848Z,76123.94
2022-12-09T22:28:51.447Z,76122.00
2022-12-09T22:31:24.258Z,76125.88
2022-12-09T22:33:51.823Z,76120.09
2022-12-09T22:36:18.683Z,76125.88
2022-12-09T22:38:45.313Z,76123.94
2022-12-09T22:41:16.626Z,76123.94
2022-12-09T22:43:43.675Z,76118.16
2022-12-09T22:46:11.869Z,76123.94
2022-12-09T22:48:39.227Z,76123.94
2022-12-09T22:51:07.330Z,76125.88
2022-12-09T22:53:34.136Z,76127.78
2022-12-09T22:56:01.072Z,76125.88
2022-12-09T22:58:27.873Z,76133.56
2022-12-09T23:00:54.881Z,76133.56
2022-12-09T23:03:21.691Z,76139.34
2022-12-09T23:05:48.525Z,76139.34
2022-12-09T23:08:15.666Z,76143.22
2022-12-09T23:10:42.218Z,76149.00
2022-12-09T23:13:09.183Z,76145.13
2022-12-09T23:15:36.035Z,76154.78
2022-12-09T23:18:03.214Z,76158.63
2022-12-09T23:20:30.206Z,76154.78
2022-12-09T23:22:57.462Z,76162.47
2022-12-09T23:25:26.487Z,76156.69
2022-12-09T23:27:53.035Z,76158.63
2022-12-09T23:30:23.003Z,76166.34
2022-12-09T23:33:01.232Z,76166.34
2022-12-09T23:35:30.094Z,76189.44
2022-12-09T23:37:56.914Z,76189.44
2022-12-09T23:40:28.720Z,76193.31
2022-12-09T23:43:04.408Z,76208.72
2022-12-09T23:45:30.854Z,76208.72
2022-12-09T23:47:57.469Z,76222.22
2022-12-09T23:50:24.026Z,76220.28
2022-12-09T23:52:50.509Z,76241.47
2022-12-09T23:55:20.019Z,76251.13
2022-12-09T23:57:49.749Z,76264.59
